createdAt,value
2019-04-29T00:00:17.673Z,4.90
2019-04-29T00:02:50.516Z,5.10
2019-04-29T00:05:22.050Z,5.20
2019-04-29T00:07:53.339Z,5.30
2019-04-29T00:10:24.764Z,5.20
2019-04-29T00:12:56.052Z,5.00
2019-04-29T00:15:35.935Z,5.00
2019-04-29T00:18:25.142Z,4.90
2019-04-29T00:20:56.902Z,5.00
2019-04-29T00:23:28.256Z,5.10
2019-04-29T00:25:59.588Z,5.00
2019-04-29T00:28:30.909Z,5.00
2019-04-29T00:31:02.712Z,5.00
2019-04-29T00:33:34.028Z,4.90
2019-04-29T00:36:05.468Z,5.00
2019-04-29T00:38:45.255Z,4.90
2019-04-29T00:41:27.103Z,5.10
2019-04-29T00:43:59.975Z,5.10
2019-04-29T00:46:31.310Z,5.00
2019-04-29T00:49:02.759Z,4.90
2019-04-29T00:51:34.007Z,4.90
2019-04-29T00:54:06.998Z,5.10
2019-04-29T00:56:38.506Z,5.10
2019-04-29T00:59:09.838Z,5.20
2019-04-29T01:01:43.492Z,5.20
2019-04-29T01:04:14.826Z,5.10
2019-04-29T01:06:46.184Z,5.10
2019-04-29T01:09:18.818Z,5.10
2019-04-29T01:11:50.116Z,5.00
2019-04-29T01:14:21.462Z,5.00
2019-04-29T01:16:52.771Z,5.00
2019-04-29T01:19:24.121Z,5.00
2019-04-29T01:21:55.424Z,4.90
2019-04-29T01:24:26.953Z,4.90
2019-04-29T01:27:00.023Z,5.00
2019-04-29T01:29:32.926Z,5.00
2019-04-29T01:32:06.041Z,5.00
2019-04-29T01:34:39.943Z,5.10
2019-04-29T01:37:11.246Z,5.00
2019-04-29T01:39:44.168Z,5.00
2019-04-29T01:42:17.040Z,4.80
2019-04-29T01:44:48.376Z,4.90
2019-04-29T01:47:19.678Z,5.00
2019-04-29T01:49:51.200Z,5.10
2019-04-29T01:52:22.498Z,5.10
2019-04-29T01:54:53.880Z,5.00
2019-04-29T01:57:25.193Z,5.00
2019-04-29T01:59:56.522Z,5.00
2019-04-29T02:02:27.833Z,5.00
2019-04-29T02:04:59.164Z,5.00
2019-04-29T02:07:30.473Z,4.90
2019-04-29T02:10:06.107Z,4.90
2019-04-29T02:12:37.908Z,5.10
2019-04-29T02:15:09.330Z,5.00
2019-04-29T02:17:40.653Z,5.00
2019-04-29T02:20:12.365Z,5.00
2019-04-29T02:22:45.241Z,4.90
2019-04-29T02:25:21.298Z,4.90
2019-04-29T02:27:52.602Z,5.00
2019-04-29T02:30:46.522Z,5.10
2019-04-29T02:33:17.840Z,5.10
2019-04-29T02:35:49.178Z,4.90
2019-04-29T02:38:31.044Z,4.90
2019-04-29T02:41:12.953Z,4.90
2019-04-29T02:43:45.905Z,4.90
2019-04-29T02:46:17.240Z,4.90
2019-04-29T02:48:48.542Z,4.90
2019-04-29T02:51:37.678Z,4.90
2019-04-29T02:54:08.978Z,4.90
2019-04-29T02:56:41.952Z,4.80
2019-04-29T02:59:23.608Z,4.80
2019-04-29T03:02:15.809Z,4.70
2019-04-29T03:04:48.696Z,4.70
2019-04-29T03:07:20.861Z,4.70
2019-04-29T03:09:52.413Z,4.60
2019-04-29T03:12:23.967Z,4.60
2019-04-29T03:14:55.340Z,4.70
2019-04-29T03:17:26.671Z,4.70
2019-04-29T03:20:18.625Z,4.60
2019-04-29T03:22:51.160Z,4.60
2019-04-29T03:25:22.456Z,4.50
2019-04-29T03:27:53.787Z,4.40
2019-04-29T03:30:25.149Z,4.40
2019-04-29T03:32:56.560Z,4.40
2019-04-29T03:35:27.957Z,4.40
2019-04-29T03:37:59.362Z,4.30
2019-04-29T03:40:30.699Z,4.30
2019-04-29T03:43:02.196Z,4.30
2019-04-29T03:45:33.706Z,4.30
2019-04-29T03:48:05.173Z,4.30
2019-04-29T03:50:36.508Z,4.30
2019-04-29T03:53:07.803Z,4.30
2019-04-29T03:55:40.715Z,4.30
2019-04-29T03:58:12.241Z,4.20
2019-04-29T04:00:45.177Z,4.20
2019-04-29T04:03:24.304Z,4.20
2019-04-29T04:06:01.135Z,4.10
2019-04-29T04:08:34.157Z,4.10
2019-04-29T04:11:05.505Z,4.10
2019-04-29T04:13:36.895Z,4.20
2019-04-29T04:16:09.790Z,4.10
2019-04-29T04:18:41.162Z,4.00
2019-04-29T04:21:12.493Z,4.00
2019-04-29T04:23:44.973Z,4.00
2019-04-29T04:26:16.302Z,4.10
2019-04-29T04:28:47.606Z,4.10
2019-04-29T04:31:18.940Z,4.20
2019-04-29T04:33:50.279Z,4.20
2019-04-29T04:36:22.652Z,4.20
2019-04-29T04:38:53.965Z,4.20
2019-04-29T04:41:25.429Z,4.20
2019-04-29T04:43:56.734Z,4.20
2019-04-29T04:46:28.067Z,4.30
2019-04-29T04:48:59.501Z,4.40
2019-04-29T04:51:30.839Z,4.40
2019-04-29T04:54:02.154Z,4.50
2019-04-29T04:56:33.483Z,4.60
2019-04-29T04:59:04.786Z,4.90
2019-04-29T05:01:36.227Z,5.00
2019-04-29T05:04:07.580Z,5.00
2019-04-29T05:06:38.903Z,5.00
2019-04-29T05:09:10.253Z,5.10
2019-04-29T05:11:41.564Z,5.10
2019-04-29T05:14:12.887Z,5.00
2019-04-29T05:16:44.200Z,4.90
2019-04-29T05:19:15.832Z,5.00
2019-04-29T05:21:47.138Z,5.20
2019-04-29T05:24:18.476Z,5.20
2019-04-29T05:26:49.782Z,5.30
2019-04-29T05:29:21.213Z,5.50
2019-04-29T05:31:52.507Z,5.60
2019-04-29T05:34:25.449Z,5.70
2019-04-29T05:37:14.546Z,5.70
2019-04-29T05:39:47.168Z,5.70
2019-04-29T05:42:18.489Z,5.70
2019-04-29T05:44:54.387Z,5.60
2019-04-29T05:47:37.026Z,5.70
2019-04-29T05:50:18.531Z,5.90
2019-04-29T05:52:54.487Z,6.00
2019-04-29T05:55:25.868Z,6.10
2019-04-29T05:58:03.057Z,6.30
2019-04-29T06:00:32.875Z,6.50
2019-04-29T06:03:04.167Z,6.60
2019-04-29T06:05:35.501Z,6.70
2019-04-29T06:08:07.002Z,6.60
2019-04-29T06:10:38.333Z,6.40
2019-04-29T06:13:09.627Z,6.30
2019-04-29T06:15:40.953Z,6.40
2019-04-29T06:18:12.243Z,6.40
2019-04-29T06:20:43.571Z,6.50
2019-04-29T06:23:14.874Z,6.70
2019-04-29T06:25:46.202Z,7.10
2019-04-29T06:28:21.611Z,7.30
2019-04-29T06:30:51.914Z,7.40
2019-04-29T06:33:24.144Z,7.40
2019-04-29T06:35:57.142Z,7.30
2019-04-29T06:38:28.513Z,7.20
2019-04-29T06:41:00.942Z,7.00
2019-04-29T06:43:32.242Z,6.80
2019-04-29T06:46:03.576Z,6.70
2019-04-29T06:48:34.966Z,6.70
2019-04-29T06:51:06.401Z,6.70
2019-04-29T06:53:37.701Z,6.50
2019-04-29T06:56:09.388Z,6.40
2019-04-29T06:58:40.813Z,6.40
2019-04-29T07:01:13.238Z,6.50
2019-04-29T07:03:44.578Z,6.60
2019-04-29T07:06:15.911Z,6.80
2019-04-29T07:08:47.203Z,6.80
2019-04-29T07:11:18.570Z,6.80
2019-04-29T07:13:53.407Z,7.00
2019-04-29T07:16:27.282Z,7.20
2019-04-29T07:18:55.946Z,7.20
2019-04-29T07:21:27.596Z,7.20
2019-04-29T07:23:58.971Z,7.00
2019-04-29T07:26:30.306Z,6.70
2019-04-29T07:29:01.597Z,6.60
2019-04-29T07:31:34.814Z,6.40
2019-04-29T07:34:08.389Z,6.20
2019-04-29T07:36:38.968Z,6.20
2019-04-29T07:39:10.291Z,6.40
2019-04-29T07:41:41.631Z,6.60
2019-04-29T07:44:13.681Z,6.70
2019-04-29T07:46:56.744Z,6.60
2019-04-29T07:49:23.285Z,6.60
2019-04-29T07:51:54.627Z,6.60
2019-04-29T07:54:25.925Z,6.60
2019-04-29T07:56:57.255Z,6.50
2019-04-29T07:59:28.590Z,6.30
2019-04-29T08:02:01.390Z,6.30
2019-04-29T08:04:33.079Z,6.40
2019-04-29T08:07:04.520Z,6.60
2019-04-29T08:09:39.824Z,7.00
2019-04-29T08:12:11.537Z,7.20
2019-04-29T08:14:43.667Z,7.50
2019-04-29T08:17:14.964Z,7.50
2019-04-29T08:19:46.385Z,7.60
2019-04-29T08:22:18.357Z,7.80
2019-04-29T08:24:50.495Z,8.00
2019-04-29T08:27:22.847Z,8.40
2019-04-29T08:29:54.258Z,8.40
2019-04-29T08:32:25.564Z,8.30
2019-04-29T08:34:58.299Z,8.20
2019-04-29T08:37:29.903Z,8.40
2019-04-29T08:40:15.485Z,8.60
2019-04-29T08:42:46.924Z,8.60
2019-04-29T08:45:26.211Z,8.50
2019-04-29T08:47:58.612Z,8.50
2019-04-29T08:50:31.045Z,8.80
2019-04-29T08:53:02.363Z,9.00
2019-04-29T08:55:36.289Z,9.10
2019-04-29T08:58:10.734Z,9.20
2019-04-29T09:00:39.817Z,9.40
2019-04-29T09:03:11.118Z,9.20
2019-04-29T09:05:46.149Z,9.30
2019-04-29T09:08:15.829Z,9.60
2019-04-29T09:10:47.218Z,9.60
2019-04-29T09:13:18.531Z,9.70
2019-04-29T09:15:49.875Z,9.70
2019-04-29T09:18:21.186Z,9.40
2019-04-29T09:20:52.533Z,9.00
2019-04-29T09:23:28.135Z,8.50
2019-04-29T09:26:05.300Z,8.50
2019-04-29T09:28:36.616Z,8.30
2019-04-29T09:31:08.030Z,8.40
2019-04-29T09:33:39.409Z,8.50
2019-04-29T09:36:13.872Z,8.60
2019-04-29T09:38:43.772Z,9.00
2019-04-29T09:41:30.463Z,9.10
2019-04-29T09:44:03.867Z,9.50
2019-04-29T09:46:37.286Z,10.30
2019-04-29T09:49:08.605Z,10.50
2019-04-29T09:51:39.954Z,10.50
2019-04-29T09:54:14.482Z,10.40
2019-04-29T09:56:44.450Z,10.20
2019-04-29T09:59:26.125Z,10.30
2019-04-29T10:01:59.035Z,9.60
2019-04-29T10:04:56.920Z,9.30
2019-04-29T10:07:23.332Z,8.80
2019-04-29T10:09:57.366Z,8.80
2019-04-29T10:12:27.691Z,8.70
2019-04-29T10:14:58.997Z,8.80
2019-04-29T10:17:45.870Z,8.70
2019-04-29T10:20:19.717Z,8.70
2019-04-29T10:22:53.879Z,8.90
2019-04-29T10:25:24.197Z,9.20
2019-04-29T10:27:55.525Z,9.60
2019-04-29T10:30:31.133Z,9.70
2019-04-29T10:33:01.908Z,9.60
2019-04-29T10:35:33.266Z,9.60
2019-04-29T10:38:05.071Z,10.00
2019-04-29T10:40:38.010Z,10.70
2019-04-29T10:43:20.162Z,11.10
2019-04-29T10:46:03.228Z,11.40
2019-04-29T10:48:42.199Z,11.60
2019-04-29T10:51:15.086Z,11.90
2019-04-29T10:53:46.639Z,12.50
2019-04-29T10:56:19.773Z,12.90
2019-04-29T10:58:51.321Z,12.50
2019-04-29T11:01:29.563Z,11.70
2019-04-29T11:04:02.751Z,11.30
2019-04-29T11:06:35.819Z,11.20
2019-04-29T11:09:14.511Z,11.20
2019-04-29T11:11:46.457Z,10.80
2019-04-29T11:14:17.871Z,10.10
2019-04-29T11:16:49.480Z,9.70
2019-04-29T11:19:20.824Z,9.50
2019-04-29T11:21:52.234Z,9.30
2019-04-29T11:24:25.159Z,9.20
2019-04-29T11:27:11.197Z,9.10
2019-04-29T11:29:31.204Z,9.10
2019-04-29T11:32:04.091Z,9.00
2019-04-29T11:34:55.028Z,8.90
2019-04-29T11:37:26.529Z,8.70
2019-04-29T11:39:57.879Z,8.60
2019-04-29T11:42:31.901Z,8.50
2019-04-29T11:45:04.072Z,8.20
2019-04-29T11:47:35.386Z,8.10
2019-04-29T11:50:15.820Z,7.90
2019-04-29T11:52:47.136Z,8.10
2019-04-29T11:55:20.128Z,8.20
2019-04-29T11:57:53.046Z,8.40
2019-04-29T12:00:27.606Z,8.70
2019-04-29T12:03:00.473Z,9.00
2019-04-29T12:05:40.143Z,9.30
2019-04-29T12:08:16.924Z,9.50
2019-04-29T12:10:51.807Z,9.80
2019-04-29T12:13:28.327Z,10.20
2019-04-29T12:16:01.095Z,10.40
2019-04-29T12:18:38.063Z,10.40
2019-04-29T12:21:09.773Z,10.70
2019-04-29T12:23:41.074Z,10.60
2019-04-29T12:26:12.815Z,10.30
2019-04-29T12:28:44.548Z,9.70
2019-04-29T12:31:32.738Z,9.20
2019-04-29T12:34:22.908Z,8.90
2019-04-29T12:36:56.431Z,8.80
2019-04-29T12:39:45.116Z,9.00
2019-04-29T12:42:35.713Z,9.30
2019-04-29T12:45:19.286Z,9.80
2019-04-29T12:47:44.593Z,10.00
2019-04-29T12:50:17.502Z,10.20
2019-04-29T12:52:48.923Z,10.30
2019-04-29T12:55:47.129Z,10.50
2019-04-29T12:58:00.567Z,10.50
2019-04-29T13:00:46.839Z,10.70
2019-04-29T13:03:10.868Z,10.90
2019-04-29T13:05:57.925Z,11.00
2019-04-29T13:08:24.110Z,10.90
2019-04-29T13:10:56.989Z,10.50
2019-04-29T13:13:28.342Z,10.30
2019-04-29T13:16:20.191Z,9.90
2019-04-29T13:18:53.977Z,9.50
2019-04-29T13:21:26.289Z,9.30
2019-04-29T13:24:12.768Z,9.30
2019-04-29T13:26:33.335Z,9.40
2019-04-29T13:29:04.968Z,9.60
2019-04-29T13:31:38.867Z,9.40
2019-04-29T13:34:23.760Z,9.10
2019-04-29T13:36:43.962Z,8.70
2019-04-29T13:39:17.241Z,8.60
2019-04-29T13:41:57.692Z,8.50
2019-04-29T13:44:21.733Z,8.60
2019-04-29T13:46:54.070Z,8.60
2019-04-29T13:49:25.419Z,8.70
2019-04-29T13:51:58.431Z,9.00
2019-04-29T13:54:29.799Z,9.30
2019-04-29T13:57:07.560Z,9.70
2019-04-29T13:59:42.066Z,10.00
2019-04-29T14:02:22.106Z,9.80
2019-04-29T14:05:02.390Z,9.80
2019-04-29T14:07:34.795Z,9.50
2019-04-29T14:10:10.253Z,9.20
2019-04-29T14:12:48.347Z,8.90
2019-04-29T14:15:15.417Z,8.50
2019-04-29T14:17:46.705Z,8.20
2019-04-29T14:20:18.332Z,8.20
2019-04-29T14:22:49.735Z,8.20
2019-04-29T14:25:21.039Z,8.40
2019-04-29T14:27:52.408Z,8.60
2019-04-29T14:30:37.863Z,8.70
2019-04-29T14:33:01.728Z,8.80
2019-04-29T14:35:36.056Z,9.00
2019-04-29T14:38:06.438Z,9.00
2019-04-29T14:40:39.024Z,9.20
2019-04-29T14:43:32.050Z,8.90
2019-04-29T14:46:16.463Z,9.00
2019-04-29T14:48:59.497Z,9.10
2019-04-29T14:51:36.316Z,9.10
2019-04-29T14:54:05.895Z,9.00
2019-04-29T14:56:34.630Z,9.00
2019-04-29T14:59:07.544Z,8.90
2019-04-29T15:01:53.138Z,8.90
2019-04-29T15:04:26.284Z,8.80
2019-04-29T15:06:57.667Z,8.60
2019-04-29T15:09:29.030Z,8.50
2019-04-29T15:12:02.110Z,8.50
2019-04-29T15:14:35.139Z,8.40
2019-04-29T15:17:24.677Z,8.50
2019-04-29T15:20:16.115Z,8.50
2019-04-29T15:22:47.446Z,8.50
2019-04-29T15:25:20.896Z,8.50
2019-04-29T15:27:51.810Z,8.50
2019-04-29T15:30:23.179Z,8.50
2019-04-29T15:32:57.952Z,8.40
2019-04-29T15:35:27.446Z,8.30
2019-04-29T15:37:58.843Z,8.20
2019-04-29T15:40:30.168Z,8.00
2019-04-29T15:43:01.731Z,7.80
2019-04-29T15:45:34.497Z,7.80
2019-04-29T15:48:05.884Z,7.70
2019-04-29T15:50:38.995Z,7.80
2019-04-29T15:53:10.317Z,7.90
2019-04-29T15:55:41.973Z,7.90
2019-04-29T15:58:13.616Z,7.90
2019-04-29T16:00:45.099Z,7.80
2019-04-29T16:03:17.627Z,7.80
2019-04-29T16:06:20.580Z,7.60
2019-04-29T16:08:59.016Z,7.50
2019-04-29T16:11:38.112Z,7.40
2019-04-29T16:14:11.031Z,7.30
2019-04-29T16:16:42.375Z,7.30
2019-04-29T16:19:13.741Z,7.30
2019-04-29T16:21:45.101Z,7.20
2019-04-29T16:24:26.358Z,7.20
2019-04-29T16:26:53.547Z,7.20
2019-04-29T16:29:22.446Z,7.30
2019-04-29T16:31:54.925Z,7.20
2019-04-29T16:34:26.801Z,7.10
2019-04-29T16:36:58.121Z,7.10
2019-04-29T16:39:29.614Z,7.10
2019-04-29T16:42:12.047Z,7.00
2019-04-29T16:44:43.368Z,7.00
2019-04-29T16:47:15.599Z,7.00
2019-04-29T16:49:47.196Z,7.00
2019-04-29T16:52:18.545Z,6.90
2019-04-29T16:54:49.873Z,6.90
2019-04-29T16:57:21.338Z,6.90
2019-04-29T16:59:52.706Z,6.90
2019-04-29T17:02:24.646Z,6.80
2019-04-29T17:04:56.280Z,6.80
2019-04-29T17:07:31.192Z,6.80
2019-04-29T17:10:02.319Z,6.80
2019-04-29T17:12:37.999Z,6.60
2019-04-29T17:15:23.871Z,6.60
2019-04-29T17:17:42.847Z,6.60
2019-04-29T17:20:15.152Z,6.70
2019-04-29T17:22:46.526Z,6.70
2019-04-29T17:25:18.216Z,6.80
2019-04-29T17:28:03.131Z,6.80
2019-04-29T17:30:46.711Z,6.60
2019-04-29T17:33:27.795Z,6.60
2019-04-29T17:35:56.962Z,6.70
2019-04-29T17:38:28.301Z,6.60
2019-04-29T17:40:59.683Z,6.60
2019-04-29T17:43:43.105Z,6.60
2019-04-29T17:46:15.005Z,6.60
2019-04-29T17:48:53.247Z,6.60
2019-04-29T17:51:24.788Z,6.60
2019-04-29T17:53:57.819Z,6.50
2019-04-29T17:56:35.066Z,6.50
2019-04-29T17:59:22.722Z,6.40
2019-04-29T18:01:55.337Z,6.40
2019-04-29T18:04:32.401Z,6.50
2019-04-29T18:07:21.331Z,6.50
2019-04-29T18:09:56.986Z,6.50
2019-04-29T18:12:28.302Z,6.40
2019-04-29T18:14:59.647Z,6.50
2019-04-29T18:17:32.540Z,6.30
2019-04-29T18:20:07.980Z,6.40
2019-04-29T18:22:54.859Z,6.40
2019-04-29T18:25:44.839Z,6.40
2019-04-29T18:28:17.546Z,6.40
2019-04-29T18:30:56.135Z,6.40
2019-04-29T18:33:24.832Z,6.40
2019-04-29T18:36:04.183Z,6.40
2019-04-29T18:38:29.089Z,6.40
2019-04-29T18:41:00.436Z,6.40
2019-04-29T18:43:31.823Z,6.50
2019-04-29T18:46:06.110Z,6.60
2019-04-29T18:48:36.186Z,6.50
2019-04-29T18:51:07.505Z,6.50
2019-04-29T18:53:38.852Z,6.40
2019-04-29T18:56:10.157Z,6.40
2019-04-29T18:58:42.147Z,6.40
2019-04-29T19:01:14.536Z,6.40
2019-04-29T19:03:52.227Z,6.40
2019-04-29T19:06:23.644Z,6.30
2019-04-29T19:09:01.776Z,6.20
2019-04-29T19:11:32.419Z,6.20
2019-04-29T19:14:02.087Z,6.10
2019-04-29T19:16:33.483Z,6.10
2019-04-29T19:19:05.246Z,6.10
2019-04-29T19:21:36.677Z,6.20
2019-04-29T19:24:08.247Z,6.30
2019-04-29T19:26:39.559Z,6.40
2019-04-29T19:29:11.025Z,6.40
2019-04-29T19:31:46.667Z,6.20
2019-04-29T19:34:18.689Z,6.10
2019-04-29T19:36:50.620Z,6.10
2019-04-29T19:39:23.379Z,6.00
2019-04-29T19:41:55.725Z,5.90
2019-04-29T19:44:33.334Z,5.90
2019-04-29T19:47:00.446Z,6.00
2019-04-29T19:49:31.794Z,6.10
2019-04-29T19:52:03.119Z,6.10
2019-04-29T19:54:34.478Z,6.10
2019-04-29T19:57:07.433Z,6.00
2019-04-29T19:59:50.370Z,6.10
2019-04-29T20:02:16.981Z,6.10
2019-04-29T20:04:52.392Z,6.00
2019-04-29T20:07:23.415Z,5.90
2019-04-29T20:10:03.998Z,5.80
2019-04-29T20:12:28.671Z,5.80
2019-04-29T20:15:02.664Z,5.90
2019-04-29T20:17:52.522Z,5.80
2019-04-29T20:20:29.813Z,5.90
2019-04-29T20:22:58.739Z,5.80
2019-04-29T20:25:37.663Z,5.90
2019-04-29T20:28:07.943Z,5.80
2019-04-29T20:33:48.479Z,5.90
2019-04-29T20:36:33.183Z,5.90
2019-04-29T20:41:49.219Z,6.00
2019-04-29T20:44:20.997Z,5.90
2019-04-29T20:47:14.058Z,5.90
2019-04-29T20:49:26.297Z,5.90
2019-04-29T20:51:59.680Z,5.90
2019-04-29T20:54:32.807Z,5.90
2019-04-29T20:57:06.098Z,6.00
2019-04-29T20:59:37.506Z,5.90
2019-04-29T21:02:12.559Z,5.90
2019-04-29T21:04:46.528Z,5.90
2019-04-29T21:07:22.996Z,5.80
2019-04-29T21:09:48.845Z,5.80
2019-04-29T21:12:29.845Z,5.90
2019-04-29T21:15:15.035Z,5.80
2019-04-29T21:17:41.578Z,5.70
2019-04-29T21:20:14.147Z,5.70
2019-04-29T21:22:45.678Z,5.70
2019-04-29T21:25:18.105Z,5.70
2019-04-29T21:27:52.674Z,5.70
2019-04-29T21:30:27.208Z,5.70
2019-04-29T21:32:56.006Z,5.80
2019-04-29T21:35:49.473Z,5.70
2019-04-29T21:38:31.834Z,5.80
2019-04-29T21:41:07.756Z,5.70
2019-04-29T21:43:40.678Z,5.70
2019-04-29T21:46:11.994Z,5.60
2019-04-29T21:48:43.423Z,5.60
2019-04-29T21:51:15.704Z,5.60
2019-04-29T21:53:48.216Z,5.50
2019-04-29T21:56:19.565Z,5.60
2019-04-29T21:58:51.013Z,5.50
2019-04-29T22:01:22.535Z,5.50
2019-04-29T22:03:57.715Z,5.50
2019-04-29T22:06:29.116Z,5.50
2019-04-29T22:09:01.304Z,5.50
2019-04-29T22:11:37.807Z,5.50
2019-04-29T22:14:09.865Z,5.50
2019-04-29T22:16:42.292Z,5.50
2019-04-29T22:19:17.588Z,5.60
2019-04-29T22:21:48.497Z,5.60
2019-04-29T22:24:21.847Z,5.60
2019-04-29T22:26:56.476Z,5.70
2019-04-29T22:29:32.044Z,5.70
2019-04-29T22:32:01.051Z,5.70
2019-04-29T22:34:32.555Z,5.70
2019-04-29T22:37:05.544Z,5.60
2019-04-29T22:39:37.095Z,5.60
2019-04-29T22:42:19.301Z,5.60
2019-04-29T22:44:52.641Z,5.60
2019-04-29T22:47:24.955Z,5.60
2019-04-29T22:49:58.762Z,5.60
2019-04-29T22:52:31.315Z,5.70
2019-04-29T22:55:02.791Z,5.70
2019-04-29T22:57:34.322Z,5.80
2019-04-29T23:00:09.193Z,5.80
2019-04-29T23:02:42.068Z,5.70
2019-04-29T23:05:13.518Z,5.60
2019-04-29T23:07:45.614Z,5.50
2019-04-29T23:10:18.108Z,5.50
2019-04-29T23:12:54.058Z,5.50
2019-04-29T23:15:24.197Z,5.50
2019-04-29T23:17:56.426Z,5.50
2019-04-29T23:20:29.021Z,5.50
2019-04-29T23:23:03.135Z,5.50
2019-04-29T23:25:55.688Z,5.50
2019-04-29T23:28:28.377Z,5.40
2019-04-29T23:30:59.907Z,5.30
2019-04-29T23:33:31.212Z,5.30
2019-04-29T23:36:02.638Z,5.40
2019-04-29T23:38:33.949Z,5.40
2019-04-29T23:41:07.084Z,5.40
2019-04-29T23:43:38.334Z,5.40
2019-04-29T23:46:09.703Z,5.50
2019-04-29T23:48:41.149Z,5.40
2019-04-29T23:51:12.456Z,5.40
2019-04-29T23:53:45.229Z,5.50
2019-04-29T23:56:18.530Z,5.40
2019-04-29T23:58:57.255Z,5.40
